Time;durP1;ratioP1;P1;durP2;ratioP2;P2;SDS_P1;SDS_P2;PMS_P1;PMS_P2;Temp;Humidity;BMP_temperature;BMP_pressure;BME280_temperature;BME280_humidity;BME280_pressure;Samples;Min_cycle;Max_cycle;Signal;HPM_P1;HPM_P2
2020/12/30 00:00:08;;;;;;;9.38;4.72;;;;;;;;;;5106540;28;20036;-76
2020/12/30 00:02:35;;;;;;;12.88;4.70;;;;;;;;;;5091446;28;20036;-74
2020/12/30 00:05:01;;;;;;;8.40;4.40;;;;;;;;;;5091082;28;20020;-72
2020/12/30 00:07:31;;;;;;;9.23;4.75;;;;;;;;;;5090856;28;20016;-72
2020/12/30 00:09:58;;;;;;;10.52;4.60;;;;;;;;;;5091451;28;20059;-75
2020/12/30 00:12:27;;;;;;;7.90;3.97;;;;;;;;;;5110355;28;20027;-72
2020/12/30 00:14:54;;;;;;;8.05;4.60;;;;;;;;;;5095280;28;20020;-84
2020/12/30 00:17:20;;;;;;;9.82;4.63;;;;;;;;;;5115494;28;20027;-74
2020/12/30 00:19:46;;;;;;;9.70;4.70;;;;;;;;;;5100213;28;20020;-82
2020/12/30 00:22:12;;;;;;;11.80;4.95;;;;;;;;;;5096153;28;20035;-74
2020/12/30 00:24:39;;;;;;;12.85;4.78;;;;;;;;;;5100967;28;20024;-77
2020/12/30 00:27:05;;;;;;;7.55;4.32;;;;;;;;;;5094453;28;20032;-70
2020/12/30 00:29:32;;;;;;;10.38;5.00;;;;;;;;;;5110067;28;20016;-73
2020/12/30 00:31:58;;;;;;;9.63;4.88;;;;;;;;;;5110225;28;20052;-72
2020/12/30 00:34:24;;;;;;;9.95;5.30;;;;;;;;;;5110034;28;20521;-71
2020/12/30 00:36:50;;;;;;;10.20;5.15;;;;;;;;;;5095402;28;20068;-71
2020/12/30 00:39:16;;;;;;;10.80;5.10;;;;;;;;;;5094471;28;20020;-74
2020/12/30 00:41:42;;;;;;;8.68;4.57;;;;;;;;;;5109984;28;20468;-71
2020/12/30 00:44:09;;;;;;;8.65;4.63;;;;;;;;;;5094233;28;20021;-72
2020/12/30 00:46:35;;;;;;;10.00;5.03;;;;;;;;;;5109880;28;20059;-72
2020/12/30 00:49:01;;;;;;;9.25;4.75;;;;;;;;;;5094049;28;20055;-74
2020/12/30 00:51:27;;;;;;;8.30;4.47;;;;;;;;;;5109851;28;20024;-78
2020/12/30 00:53:53;;;;;;;8.93;4.57;;;;;;;;;;5094559;28;20069;-79
2020/12/30 00:56:19;;;;;;;8.68;4.45;;;;;;;;;;5094145;28;20024;-75
2020/12/30 00:58:45;;;;;;;11.05;5.38;;;;;;;;;;5093802;28;20107;-74
2020/12/30 01:01:11;;;;;;;12.70;5.63;;;;;;;;;;5093767;28;20035;-71
2020/12/30 01:03:39;;;;;;;8.18;4.85;;;;;;;;;;5093685;28;20042;-75
2020/12/30 01:06:06;;;;;;;8.68;5.13;;;;;;;;;;5093605;28;20035;-75
2020/12/30 01:08:32;;;;;;;15.50;5.38;;;;;;;;;;5109472;28;20020;-74
2020/12/30 01:10:58;;;;;;;10.48;5.10;;;;;;;;;;5121085;27;20030;-74
2020/12/30 01:13:24;;;;;;;18.80;5.20;;;;;;;;;;5083286;28;20032;-72
2020/12/30 01:15:50;;;;;;;9.52;5.05;;;;;;;;;;5092136;28;20024;-71
2020/12/30 01:18:16;;;;;;;8.35;4.90;;;;;;;;;;5095785;28;20053;-72
2020/12/30 01:20:42;;;;;;;12.38;5.32;;;;;;;;;;5113471;28;20109;-72
2020/12/30 01:23:08;;;;;;;10.65;5.13;;;;;;;;;;5113928;28;20046;-72
2020/12/30 01:25:34;;;;;;;9.57;4.75;;;;;;;;;;5095469;28;20088;-71
2020/12/30 01:28:00;;;;;;;10.00;5.38;;;;;;;;;;5097079;28;20047;-69
2020/12/30 01:30:26;;;;;;;9.65;4.82;;;;;;;;;;5093313;28;20051;-69
2020/12/30 01:32:52;;;;;;;9.85;5.18;;;;;;;;;;5092946;28;20122;-70
2020/12/30 01:35:18;;;;;;;11.75;5.40;;;;;;;;;;5093190;28;20035;-67
2020/12/30 01:37:44;;;;;;;8.48;4.95;;;;;;;;;;5108827;28;20052;-67
2020/12/30 01:40:10;;;;;;;7.97;4.45;;;;;;;;;;5108801;28;20529;-67
2020/12/30 01:42:47;;;;;;;8.68;5.07;;;;;;;;;;5108686;28;20047;-70
2020/12/30 01:45:13;;;;;;;10.38;5.30;;;;;;;;;;5093731;28;20035;-68
2020/12/30 01:47:39;;;;;;;8.98;5.30;;;;;;;;;;5093102;28;20518;-70
2020/12/30 01:50:06;;;;;;;9.95;5.00;;;;;;;;;;5093017;28;20022;-72
2020/12/30 01:52:33;;;;;;;9.98;4.68;;;;;;;;;;5092994;28;20404;-69
2020/12/30 01:54:59;;;;;;;11.05;5.03;;;;;;;;;;5106092;28;20016;-71
2020/12/30 01:57:25;;;;;;;13.35;5.38;;;;;;;;;;5113300;28;20062;-70
2020/12/30 01:59:52;;;;;;;11.35;4.55;;;;;;;;;;5106076;28;20463;-70
2020/12/30 02:02:22;;;;;;;9.48;5.10;;;;;;;;;;5095127;28;20036;-69
2020/12/30 02:04:50;;;;;;;10.68;4.78;;;;;;;;;;5093824;28;20016;-69
2020/12/30 02:07:17;;;;;;;10.20;5.00;;;;;;;;;;5093946;28;20111;-70
2020/12/30 02:09:43;;;;;;;18.00;4.90;;;;;;;;;;5093989;28;20546;-70
2020/12/30 02:12:11;;;;;;;9.70;4.97;;;;;;;;;;5109667;28;20421;-70
2020/12/30 02:14:37;;;;;;;11.80;4.68;;;;;;;;;;5093669;28;20028;-70
2020/12/30 02:17:03;;;;;;;11.10;5.28;;;;;;;;;;5111412;28;20019;-71
2020/12/30 02:19:29;;;;;;;11.15;5.22;;;;;;;;;;5103354;28;20481;-70
2020/12/30 02:21:58;;;;;;;8.85;4.47;;;;;;;;;;5087521;28;20044;-70
2020/12/30 02:24:28;;;;;;;10.02;5.00;;;;;;;;;;5105616;28;20095;-70
2020/12/30 02:26:54;;;;;;;10.43;5.10;;;;;;;;;;5100939;28;20490;-70
2020/12/30 02:29:21;;;;;;;11.50;4.88;;;;;;;;;;5092733;28;20048;-70
2020/12/30 02:31:47;;;;;;;10.13;5.18;;;;;;;;;;5102711;28;20031;-70
2020/12/30 02:34:13;;;;;;;9.30;5.53;;;;;;;;;;5087112;28;20040;-70
2020/12/30 02:36:39;;;;;;;9.23;5.13;;;;;;;;;;5101732;28;20016;-69
2020/12/30 02:39:05;;;;;;;10.57;5.82;;;;;;;;;;5103864;28;20028;-70
2020/12/30 02:41:32;;;;;;;10.98;5.50;;;;;;;;;;5109225;28;20023;-71
2020/12/30 02:43:59;;;;;;;10.95;5.68;;;;;;;;;;5113719;28;20027;-70
2020/12/30 02:46:25;;;;;;;8.63;5.18;;;;;;;;;;5113627;28;20026;-70
2020/12/30 02:48:51;;;;;;;9.60;5.15;;;;;;;;;;5113494;28;20055;-70
2020/12/30 02:51:17;;;;;;;12.05;5.70;;;;;;;;;;5091018;28;20015;-70
2020/12/30 02:53:43;;;;;;;9.68;5.60;;;;;;;;;;5092184;28;20023;-70
2020/12/30 02:56:09;;;;;;;11.00;5.50;;;;;;;;;;5093217;28;20467;-70
2020/12/30 02:58:35;;;;;;;12.18;5.40;;;;;;;;;;5092741;28;20024;-70
2020/12/30 03:01:01;;;;;;;10.38;5.35;;;;;;;;;;5092934;28;20475;-70
2020/12/30 03:03:27;;;;;;;13.95;5.63;;;;;;;;;;5108953;28;20031;-70
2020/12/30 03:05:56;;;;;;;14.00;5.65;;;;;;;;;;5093181;28;20518;-70
2020/12/30 03:08:22;;;;;;;10.00;5.35;;;;;;;;;;5093632;28;20028;-70
2020/12/30 03:10:49;;;;;;;10.73;5.57;;;;;;;;;;5092849;28;20016;-70
2020/12/30 03:13:15;;;;;;;12.07;6.10;;;;;;;;;;5093013;28;20024;-70
2020/12/30 03:15:41;;;;;;;9.23;5.05;;;;;;;;;;5100165;28;20523;-70
2020/12/30 03:18:07;;;;;;;9.52;5.72;;;;;;;;;;5113173;28;20390;-70
2020/12/30 03:20:33;;;;;;;9.65;5.25;;;;;;;;;;5128860;28;20131;-70
2020/12/30 03:22:59;;;;;;;9.77;5.20;;;;;;;;;;5113206;28;20035;-70
2020/12/30 03:25:25;;;;;;;10.38;5.60;;;;;;;;;;5128230;28;20020;-70
2020/12/30 03:27:51;;;;;;;9.00;4.90;;;;;;;;;;5113248;28;20026;-70
2020/12/30 03:30:17;;;;;;;9.85;5.65;;;;;;;;;;5113150;28;20023;-70
2020/12/30 03:32:43;;;;;;;10.30;5.65;;;;;;;;;;5128768;28;20127;-71
2020/12/30 03:35:09;;;;;;;9.10;4.78;;;;;;;;;;5113146;28;20020;-70
2020/12/30 03:37:35;;;;;;;10.90;5.60;;;;;;;;;;5113043;28;20474;-71
2020/12/30 03:40:01;;;;;;;9.82;5.03;;;;;;;;;;5112965;28;20024;-70
2020/12/30 03:42:27;;;;;;;9.05;4.60;;;;;;;;;;5112046;28;20080;-70
2020/12/30 03:44:53;;;;;;;9.48;5.43;;;;;;;;;;5115453;28;20027;-70
2020/12/30 03:47:19;;;;;;;7.82;4.60;;;;;;;;;;5133104;27;20088;-70
2020/12/30 03:49:46;;;;;;;10.05;4.63;;;;;;;;;;5117072;28;20024;-70
2020/12/30 03:52:12;;;;;;;9.93;4.85;;;;;;;;;;5117077;28;20016;-70
2020/12/30 03:54:38;;;;;;;15.43;5.47;;;;;;;;;;5132921;27;20107;-70
2020/12/30 03:57:04;;;;;;;9.32;4.13;;;;;;;;;;5117070;28;20020;-70
2020/12/30 03:59:30;;;;;;;9.25;4.53;;;;;;;;;;5116008;28;20031;-70
2020/12/30 04:01:56;;;;;;;8.52;4.63;;;;;;;;;;5116792;28;20034;-71
2020/12/30 04:04:22;;;;;;;9.07;4.30;;;;;;;;;;5116813;28;20095;-71
2020/12/30 04:06:49;;;;;;;8.05;4.40;;;;;;;;;;5116625;28;20015;-71
2020/12/30 04:09:15;;;;;;;8.85;4.88;;;;;;;;;;5116514;28;20012;-70
2020/12/30 04:11:41;;;;;;;7.63;4.35;;;;;;;;;;5116532;28;20020;-70
2020/12/30 04:14:07;;;;;;;8.25;4.63;;;;;;;;;;5132399;27;20119;-70
2020/12/30 04:16:33;;;;;;;8.80;4.32;;;;;;;;;;5102048;28;20063;-70
2020/12/30 04:19:00;;;;;;;9.18;4.57;;;;;;;;;;5111879;28;20024;-70
2020/12/30 04:21:26;;;;;;;9.82;4.50;;;;;;;;;;5096091;28;20048;-70
2020/12/30 04:23:54;;;;;;;10.35;4.40;;;;;;;;;;5095944;28;20095;-70
2020/12/30 04:26:20;;;;;;;7.85;4.05;;;;;;;;;;5095846;28;20519;-70
2020/12/30 04:28:47;;;;;;;8.55;4.68;;;;;;;;;;5095865;28;20034;-70
2020/12/30 04:31:13;;;;;;;9.07;4.35;;;;;;;;;;5111646;28;20028;-70
2020/12/30 04:33:40;;;;;;;9.55;4.40;;;;;;;;;;5112053;27;20086;-70
2020/12/30 04:36:06;;;;;;;8.77;4.18;;;;;;;;;;5096428;27;20051;-70
2020/12/30 04:38:33;;;;;;;13.27;4.15;;;;;;;;;;5095646;28;20073;-71
2020/12/30 04:40:59;;;;;;;7.25;3.67;;;;;;;;;;5111458;28;20028;-70
2020/12/30 04:43:27;;;;;;;10.52;4.22;;;;;;;;;;5095700;28;20421;-71
2020/12/30 04:45:54;;;;;;;10.35;4.32;;;;;;;;;;5095590;28;20446;-70
2020/12/30 04:48:21;;;;;;;8.05;3.97;;;;;;;;;;5095429;28;20023;-71
2020/12/30 04:50:47;;;;;;;9.88;4.18;;;;;;;;;;5096003;28;20538;-70
2020/12/30 04:53:14;;;;;;;9.10;4.10;;;;;;;;;;5095512;28;20028;-70
2020/12/30 04:55:41;;;;;;;9.48;3.85;;;;;;;;;;5094800;28;20021;-70
2020/12/30 04:58:08;;;;;;;8.55;4.00;;;;;;;;;;5095390;28;20020;-71
2020/12/30 05:00:35;;;;;;;10.43;3.92;;;;;;;;;;5095306;28;20028;-71
2020/12/30 05:03:06;;;;;;;8.13;3.70;;;;;;;;;;5095195;28;20043;-71
2020/12/30 05:05:33;;;;;;;7.15;3.30;;;;;;;;;;5095210;28;20356;-70
2020/12/30 05:07:59;;;;;;;7.88;3.38;;;;;;;;;;5095836;28;20051;-70
2020/12/30 05:10:25;;;;;;;10.10;4.47;;;;;;;;;;5095080;28;20091;-70
2020/12/30 05:12:55;;;;;;;7.95;3.67;;;;;;;;;;5095059;28;20372;-70
2020/12/30 05:15:22;;;;;;;7.15;3.78;;;;;;;;;;5099273;28;20073;-70
2020/12/30 05:17:48;;;;;;;6.97;3.60;;;;;;;;;;5115413;28;20019;-70
2020/12/30 05:20:14;;;;;;;6.47;3.42;;;;;;;;;;5130968;27;20114;-70
2020/12/30 05:22:40;;;;;;;8.50;3.70;;;;;;;;;;5115142;28;20039;-70
2020/12/30 05:25:07;;;;;;;7.15;3.80;;;;;;;;;;5114361;28;20145;-70
2020/12/30 05:27:34;;;;;;;7.93;3.72;;;;;;;;;;5115245;28;20024;-70
2020/12/30 05:30:00;;;;;;;11.05;4.10;;;;;;;;;;5131105;27;20027;-71
2020/12/30 05:32:26;;;;;;;10.05;4.55;;;;;;;;;;5130746;27;20035;-71
2020/12/30 05:34:56;;;;;;;7.70;3.90;;;;;;;;;;5115184;28;20023;-70
2020/12/30 05:37:32;;;;;;;7.05;4.00;;;;;;;;;;5115034;28;20141;-70
2020/12/30 05:39:59;;;;;;;9.35;4.15;;;;;;;;;;5114973;28;20028;-70
2020/12/30 05:42:25;;;;;;;8.95;4.00;;;;;;;;;;5114050;28;20031;-70
2020/12/30 05:44:52;;;;;;;7.55;3.80;;;;;;;;;;5130878;27;20020;-71
2020/12/30 05:47:19;;;;;;;9.60;4.28;;;;;;;;;;5130725;27;20031;-71
2020/12/30 05:49:46;;;;;;;7.55;4.22;;;;;;;;;;5114774;28;20024;-71
2020/12/30 05:52:12;;;;;;;9.48;4.45;;;;;;;;;;5114540;28;20024;-71
2020/12/30 05:54:38;;;;;;;11.10;4.45;;;;;;;;;;5114043;28;20024;-70
2020/12/30 05:57:20;;;;;;;10.05;4.80;;;;;;;;;;5129908;27;20420;-70
2020/12/30 05:59:47;;;;;;;7.95;4.72;;;;;;;;;;5113047;28;20047;-71
2020/12/30 06:02:13;;;;;;;8.23;4.68;;;;;;;;;;5113781;28;20071;-70
2020/12/30 06:04:39;;;;;;;9.27;4.15;;;;;;;;;;5113805;28;20055;-70
2020/12/30 06:07:05;;;;;;;8.73;4.50;;;;;;;;;;5113168;28;20023;-69
2020/12/30 06:09:38;;;;;;;7.55;4.28;;;;;;;;;;5113342;28;20019;-70
2020/12/30 06:12:04;;;;;;;;;;;;;;;;;;5114211;28;20034;-71
2020/12/30 06:14:31;;;;;;;10.40;4.50;;;;;;;;;;5113407;28;20026;-70
2020/12/30 06:17:00;;;;;;;9.13;4.55;;;;;;;;;;5095761;28;20102;-70
2020/12/30 06:19:28;;;;;;;12.45;4.85;;;;;;;;;;5092948;28;20463;-70
2020/12/30 06:21:54;;;;;;;9.15;5.00;;;;;;;;;;5092889;28;20028;-71
2020/12/30 06:24:20;;;;;;;8.50;4.65;;;;;;;;;;5109245;28;20422;-71
2020/12/30 06:26:46;;;;;;;9.82;4.80;;;;;;;;;;5093745;28;20024;-70
2020/12/30 06:29:13;;;;;;;8.93;4.50;;;;;;;;;;5109119;28;20522;-71
2020/12/30 06:31:49;;;;;;;8.13;5.15;;;;;;;;;;5093489;28;20116;-71
2020/12/30 06:34:18;;;;;;;8.40;4.68;;;;;;;;;;5093896;28;20044;-71
2020/12/30 06:36:45;;;;;;;8.90;5.13;;;;;;;;;;5093575;28;20483;-70
2020/12/30 06:39:23;;;;;;;9.80;4.63;;;;;;;;;;5093425;28;20046;-70
2020/12/30 06:41:57;;;;;;;10.32;4.70;;;;;;;;;;5093379;28;20111;-71
2020/12/30 06:44:39;;;;;;;9.85;5.32;;;;;;;;;;5093249;28;20105;-70
2020/12/30 06:47:06;;;;;;;9.52;4.82;;;;;;;;;;5138241;27;20031;-70
2020/12/30 06:49:32;;;;;;;9.95;5.72;;;;;;;;;;5105378;28;20024;-71
2020/12/30 06:51:58;;;;;;;10.52;4.80;;;;;;;;;;5107268;28;20039;-71
2020/12/30 06:54:43;;;;;;;8.30;5.28;;;;;;;;;;5092086;28;20145;-71
2020/12/30 06:57:09;;;;;;;11.10;5.60;;;;;;;;;;5093240;28;20034;-70
2020/12/30 06:59:36;;;;;;;8.98;4.88;;;;;;;;;;5093133;28;20150;-70
2020/12/30 07:02:03;;;;;;;8.57;4.68;;;;;;;;;;5093118;28;20386;-71
2020/12/30 07:04:33;;;;;;;8.60;4.57;;;;;;;;;;5092997;28;20028;-72
2020/12/30 07:06:59;;;;;;;11.25;4.80;;;;;;;;;;5093633;28;20097;-70
2020/12/30 07:09:28;;;;;;;8.30;4.68;;;;;;;;;;5108532;28;20381;-71
2020/12/30 07:11:55;;;;;;;10.30;5.47;;;;;;;;;;5092894;28;20031;-70
2020/12/30 07:14:22;;;;;;;9.18;4.60;;;;;;;;;;5092206;28;20483;-70
2020/12/30 07:16:49;;;;;;;9.52;4.78;;;;;;;;;;5125337;27;20031;-70
2020/12/30 07:19:17;;;;;;;6.75;3.97;;;;;;;;;;5112929;28;20052;-71
2020/12/30 07:21:47;;;;;;;8.55;4.60;;;;;;;;;;5113123;28;20036;-71
2020/12/30 07:24:19;;;;;;;9.60;4.63;;;;;;;;;;5112124;28;20052;-71
2020/12/30 07:26:46;;;;;;;7.70;4.50;;;;;;;;;;5113040;28;20106;-71
2020/12/30 07:29:16;;;;;;;8.57;4.75;;;;;;;;;;5112884;28;20015;-71
2020/12/30 07:31:45;;;;;;;8.68;4.35;;;;;;;;;;5113016;28;20542;-69
2020/12/30 07:34:18;;;;;;;8.20;4.25;;;;;;;;;;5125422;28;20040;-71
2020/12/30 07:36:45;;;;;;;7.75;4.38;;;;;;;;;;5091447;28;20020;-71
2020/12/30 07:39:11;;;;;;;8.23;5.07;;;;;;;;;;5092769;28;20020;-71
2020/12/30 07:41:37;;;;;;;8.77;5.03;;;;;;;;;;5091743;28;20032;-70
2020/12/30 07:44:04;;;;;;;8.95;4.30;;;;;;;;;;5091255;28;20039;-71
2020/12/30 07:46:31;;;;;;;9.98;5.35;;;;;;;;;;5092454;28;20100;-70
2020/12/30 07:49:16;;;;;;;9.20;5.05;;;;;;;;;;5092575;28;20102;-70
2020/12/30 07:52:03;;;;;;;7.85;4.53;;;;;;;;;;5092537;28;20062;-70
2020/12/30 07:54:29;;;;;;;9.10;5.50;;;;;;;;;;5092045;28;20052;-71
2020/12/30 07:57:02;;;;;;;7.97;4.70;;;;;;;;;;5091068;28;20012;-70
2020/12/30 07:59:28;;;;;;;8.20;4.70;;;;;;;;;;5091756;28;20111;-71
2020/12/30 08:01:54;;;;;;;8.73;5.20;;;;;;;;;;5092338;28;20464;-72
2020/12/30 08:04:20;;;;;;;7.65;4.63;;;;;;;;;;5090885;28;20028;-70
2020/12/30 08:06:47;;;;;;;10.70;4.55;;;;;;;;;;5092236;28;20032;-70
2020/12/30 08:09:13;;;;;;;10.38;4.72;;;;;;;;;;5092409;28;20028;-70
2020/12/30 08:11:49;;;;;;;8.52;4.55;;;;;;;;;;5092391;28;20024;-71
2020/12/30 08:14:16;;;;;;;7.72;4.47;;;;;;;;;;5091311;28;20020;-70
2020/12/30 08:16:55;;;;;;;8.15;4.72;;;;;;;;;;5076317;28;20021;-70
2020/12/30 08:19:38;;;;;;;7.70;4.35;;;;;;;;;;5072020;28;20024;-71
2020/12/30 08:22:14;;;;;;;9.45;4.57;;;;;;;;;;5072050;28;20036;-70
2020/12/30 08:24:41;;;;;;;9.52;4.43;;;;;;;;;;5072095;28;20047;-70
2020/12/30 08:27:08;;;;;;;10.60;4.70;;;;;;;;;;5072064;28;20018;-71
2020/12/30 08:29:38;;;;;;;7.82;4.50;;;;;;;;;;5070693;28;20024;-70
2020/12/30 08:32:06;;;;;;;8.85;4.60;;;;;;;;;;5073684;28;20020;-70
2020/12/30 08:34:35;;;;;;;9.10;4.90;;;;;;;;;;5093263;28;20089;-70
2020/12/30 08:37:06;;;;;;;7.97;4.65;;;;;;;;;;5111764;27;20459;-70
2020/12/30 08:39:34;;;;;;;8.48;4.95;;;;;;;;;;5095556;28;20021;-71
2020/12/30 08:42:03;;;;;;;8.65;4.82;;;;;;;;;;5095513;28;20127;-71
2020/12/30 08:44:34;;;;;;;8.73;5.03;;;;;;;;;;5111226;28;20058;-70
2020/12/30 08:47:03;;;;;;;9.00;5.65;;;;;;;;;;5095461;28;20032;-71
2020/12/30 08:49:30;;;;;;;9.02;5.15;;;;;;;;;;5111588;27;20020;-71
2020/12/30 08:51:56;;;;;;;8.45;5.28;;;;;;;;;;5111167;28;20024;-70
2020/12/30 08:54:22;;;;;;;11.02;4.95;;;;;;;;;;5095108;28;20047;-70
2020/12/30 08:56:48;;;;;;;9.13;5.45;;;;;;;;;;5095371;28;20020;-70
2020/12/30 08:59:22;;;;;;;10.45;5.47;;;;;;;;;;5095442;28;20068;-70
2020/12/30 09:01:48;;;;;;;9.95;5.25;;;;;;;;;;5095040;28;20032;-70
2020/12/30 09:04:14;;;;;;;8.52;5.38;;;;;;;;;;5095070;28;20032;-70
2020/12/30 09:06:41;;;;;;;11.13;6.00;;;;;;;;;;5095421;28;20012;-71
2020/12/30 09:09:14;;;;;;;12.95;5.90;;;;;;;;;;5094740;28;20028;-71
2020/12/30 09:11:50;;;;;;;11.48;6.25;;;;;;;;;;5110594;28;20027;-70
2020/12/30 09:14:17;;;;;;;11.55;5.88;;;;;;;;;;5096678;28;20471;-70
2020/12/30 09:17:00;;;;;;;10.32;5.32;;;;;;;;;;5115256;28;20031;-70
2020/12/30 09:19:27;;;;;;;10.68;5.53;;;;;;;;;;5130887;27;20028;-70
2020/12/30 09:21:53;;;;;;;12.65;5.18;;;;;;;;;;5088491;28;20028;-71
2020/12/30 09:24:20;;;;;;;13.65;6.32;;;;;;;;;;5114225;28;20016;-70
2020/12/30 09:26:47;;;;;;;10.98;5.05;;;;;;;;;;5130789;27;20031;-71
2020/12/30 09:29:17;;;;;;;8.55;5.00;;;;;;;;;;5130644;27;20098;-70
2020/12/30 09:31:50;;;;;;;12.35;4.88;;;;;;;;;;5130892;27;20032;-70
2020/12/30 09:34:17;;;;;;;9.93;5.40;;;;;;;;;;5130658;27;20444;-70
2020/12/30 09:36:56;;;;;;;9.95;4.95;;;;;;;;;;5114078;28;20026;-70
2020/12/30 09:39:22;;;;;;;11.50;4.93;;;;;;;;;;5111551;28;20023;-70
2020/12/30 09:41:48;;;;;;;12.20;5.43;;;;;;;;;;5109779;28;20028;-71
2020/12/30 09:44:14;;;;;;;8.52;4.90;;;;;;;;;;5109686;28;20051;-72
2020/12/30 09:46:50;;;;;;;12.90;5.53;;;;;;;;;;5093661;28;20472;-70
2020/12/30 09:49:17;;;;;;;13.50;4.72;;;;;;;;;;5096639;28;20080;-69
2020/12/30 09:51:43;;;;;;;13.52;5.05;;;;;;;;;;5113102;28;20026;-70
2020/12/30 09:54:09;;;;;;;10.80;4.50;;;;;;;;;;5094653;28;20016;-70
2020/12/30 09:56:35;;;;;;;8.13;4.53;;;;;;;;;;5107896;28;20023;-70
2020/12/30 09:59:02;;;;;;;10.63;4.72;;;;;;;;;;5101951;28;20090;-70
2020/12/30 10:01:30;;;;;;;9.80;5.15;;;;;;;;;;5109074;28;20034;-70
2020/12/30 10:03:57;;;;;;;9.30;5.35;;;;;;;;;;5112879;28;20111;-73
2020/12/30 10:06:23;;;;;;;12.82;4.88;;;;;;;;;;5094506;28;20031;-68
2020/12/30 10:08:49;;;;;;;9.98;4.60;;;;;;;;;;5112561;28;20455;-69
2020/12/30 10:11:19;;;;;;;9.18;5.13;;;;;;;;;;5094349;28;20073;-69
2020/12/30 10:13:45;;;;;;;8.57;5.05;;;;;;;;;;5107707;28;20012;-70
2020/12/30 10:16:11;;;;;;;10.18;5.13;;;;;;;;;;5094316;28;20020;-69
2020/12/30 10:18:37;;;;;;;8.27;4.65;;;;;;;;;;5092049;28;20012;-70
2020/12/30 10:21:03;;;;;;;8.27;4.80;;;;;;;;;;5107598;28;20020;-71
2020/12/30 10:23:29;;;;;;;7.50;4.13;;;;;;;;;;5092010;28;20028;-70
2020/12/30 10:25:55;;;;;;;9.27;4.18;;;;;;;;;;5092009;28;20044;-70
2020/12/30 10:28:21;;;;;;;7.45;4.43;;;;;;;;;;5107580;28;20505;-71
2020/12/30 10:30:47;;;;;;;9.57;5.07;;;;;;;;;;5092369;28;20020;-72
2020/12/30 10:33:13;;;;;;;8.73;4.55;;;;;;;;;;5107342;28;20040;-70
2020/12/30 10:35:39;;;;;;;8.18;4.75;;;;;;;;;;5107643;28;20028;-69
2020/12/30 10:38:05;;;;;;;7.53;4.40;;;;;;;;;;5107825;28;20541;-70
2020/12/30 10:40:31;;;;;;;6.55;3.95;;;;;;;;;;5091771;28;20420;-73
2020/12/30 10:42:57;;;;;;;6.72;4.60;;;;;;;;;;5091550;28;20027;-70
2020/12/30 10:45:24;;;;;;;10.48;4.47;;;;;;;;;;5107435;28;20024;-71
2020/12/30 10:47:50;;;;;;;9.57;4.70;;;;;;;;;;5092526;28;20455;-70
2020/12/30 10:50:16;;;;;;;6.68;4.00;;;;;;;;;;5091754;28;20387;-71
2020/12/30 10:52:42;;;;;;;8.40;4.63;;;;;;;;;;5091701;28;20356;-71
2020/12/30 10:55:08;;;;;;;8.68;3.95;;;;;;;;;;5090963;28;20534;-72
2020/12/30 10:57:34;;;;;;;9.02;4.45;;;;;;;;;;5107262;28;20032;-75
2020/12/30 11:00:00;;;;;;;7.25;4.32;;;;;;;;;;5091451;28;20019;-75
2020/12/30 11:02:26;;;;;;;6.88;4.00;;;;;;;;;;5091157;28;20071;-74
2020/12/30 11:04:52;;;;;;;10.38;4.10;;;;;;;;;;5107577;27;20016;-73
2020/12/30 11:07:18;;;;;;;7.32;4.45;;;;;;;;;;5107015;28;20024;-72
2020/12/30 11:09:44;;;;;;;7.72;4.15;;;;;;;;;;5091364;28;20039;-72
2020/12/30 11:12:10;;;;;;;9.10;4.75;;;;;;;;;;5091352;28;20482;-72
2020/12/30 11:14:36;;;;;;;8.82;4.25;;;;;;;;;;5104787;28;20130;-72
2020/12/30 11:17:02;;;;;;;8.73;4.75;;;;;;;;;;5109317;28;20016;-72
2020/12/30 11:19:28;;;;;;;8.18;4.13;;;;;;;;;;5104600;27;20051;-72
2020/12/30 11:21:54;;;;;;;9.10;4.63;;;;;;;;;;5095336;28;20189;-72
2020/12/30 11:24:21;;;;;;;16.33;4.57;;;;;;;;;;5093032;27;20387;-71
2020/12/30 11:26:48;;;;;;;8.63;4.72;;;;;;;;;;5101079;28;20031;-71
2020/12/30 11:29:14;;;;;;;7.20;4.45;;;;;;;;;;5103265;28;20020;-70
2020/12/30 11:31:40;;;;;;;12.32;4.57;;;;;;;;;;5107110;28;20024;-71
2020/12/30 11:34:06;;;;;;;7.50;4.50;;;;;;;;;;5089098;28;20079;-70
2020/12/30 11:36:32;;;;;;;12.02;4.93;;;;;;;;;;5072879;28;20093;-71
2020/12/30 11:38:58;;;;;;;9.63;5.07;;;;;;;;;;5082734;28;20048;-70
2020/12/30 11:41:24;;;;;;;11.13;5.38;;;;;;;;;;5070628;28;20569;-71
2020/12/30 11:43:50;;;;;;;8.77;4.57;;;;;;;;;;5070437;28;20083;-72
2020/12/30 11:46:17;;;;;;;15.20;6.05;;;;;;;;;;5070831;28;20053;-68
2020/12/30 11:48:43;;;;;;;10.38;4.38;;;;;;;;;;5070840;28;20091;-75
2020/12/30 11:51:09;;;;;;;8.77;5.05;;;;;;;;;;5070546;28;20027;-73
2020/12/30 11:53:35;;;;;;;8.10;4.82;;;;;;;;;;5070496;28;20021;-75
2020/12/30 11:56:02;;;;;;;14.43;5.43;;;;;;;;;;5071056;28;20482;-76
2020/12/30 11:58:28;;;;;;;11.38;5.47;;;;;;;;;;5052377;28;20119;-75
2020/12/30 12:00:54;;;;;;;9.85;4.97;;;;;;;;;;5070321;28;20517;-75
2020/12/30 12:03:20;;;;;;;10.50;5.05;;;;;;;;;;5063640;28;20506;-72
2020/12/30 12:05:46;;;;;;;10.05;4.63;;;;;;;;;;5091234;28;20495;-75
2020/12/30 12:08:12;;;;;;;8.63;4.40;;;;;;;;;;5076476;28;20032;-75
2020/12/30 12:10:38;;;;;;;7.18;4.45;;;;;;;;;;5094667;28;20079;-72
2020/12/30 12:13:04;;;;;;;8.80;4.60;;;;;;;;;;5074308;28;20067;-74
2020/12/30 12:15:30;;;;;;;7.95;4.20;;;;;;;;;;5074085;28;20027;-74
2020/12/30 12:17:56;;;;;;;7.63;5.10;;;;;;;;;;5074613;28;20147;-72
2020/12/30 12:20:22;;;;;;;6.63;4.25;;;;;;;;;;5095315;28;20027;-74
2020/12/30 12:22:48;;;;;;;8.60;4.25;;;;;;;;;;5114850;28;20480;-78
2020/12/30 12:25:14;;;;;;;6.75;3.75;;;;;;;;;;5096532;28;20391;-77
2020/12/30 12:27:40;;;;;;;12.68;4.35;;;;;;;;;;5096662;28;20090;-77
2020/12/30 12:30:06;;;;;;;6.10;4.05;;;;;;;;;;5096059;28;20025;-76
2020/12/30 12:32:32;;;;;;;8.75;4.35;;;;;;;;;;5070430;28;20024;-76
2020/12/30 12:34:59;;;;;;;8.15;5.20;;;;;;;;;;5090193;28;20049;-75
2020/12/30 12:37:26;;;;;;;8.65;4.85;;;;;;;;;;5074552;28;20046;-78
2020/12/30 12:39:53;;;;;;;9.70;4.63;;;;;;;;;;5108600;28;20016;-78
2020/12/30 12:42:20;;;;;;;8.65;4.13;;;;;;;;;;5076998;28;20028;-77
2020/12/30 12:44:46;;;;;;;6.93;4.30;;;;;;;;;;5093859;28;20086;-78
2020/12/30 12:47:12;;;;;;;8.57;4.57;;;;;;;;;;5066017;28;20036;-76
2020/12/30 12:49:38;;;;;;;6.57;4.22;;;;;;;;;;5055823;28;20017;-76
2020/12/30 12:52:04;;;;;;;7.70;4.30;;;;;;;;;;5055865;28;20079;-77
2020/12/30 12:54:31;;;;;;;7.53;4.53;;;;;;;;;;5078396;28;20096;-74
2020/12/30 12:56:58;;;;;;;6.68;4.03;;;;;;;;;;5093704;28;20020;-72
2020/12/30 12:59:25;;;;;;;10.90;4.47;;;;;;;;;;5067870;28;20024;-72
2020/12/30 13:01:51;;;;;;;9.80;4.22;;;;;;;;;;5080030;28;20046;-70
2020/12/30 13:04:18;;;;;;;6.35;4.40;;;;;;;;;;5090208;28;20028;-71
2020/12/30 13:06:44;;;;;;;11.98;4.53;;;;;;;;;;5081857;28;20012;-74
2020/12/30 13:09:12;;;;;;;6.97;4.10;;;;;;;;;;5075695;28;20506;-71
2020/12/30 13:11:45;;;;;;;7.20;3.83;;;;;;;;;;5077789;28;20028;-76
2020/12/30 13:14:11;;;;;;;6.90;4.30;;;;;;;;;;5055472;28;20020;-77
2020/12/30 13:16:37;;;;;;;7.32;4.32;;;;;;;;;;5072858;28;20384;-77
2020/12/30 13:19:04;;;;;;;6.53;3.97;;;;;;;;;;5073160;28;20025;-76
2020/12/30 13:21:36;;;;;;;6.32;3.80;;;;;;;;;;5073635;28;20051;-76
2020/12/30 13:24:03;;;;;;;10.32;5.38;;;;;;;;;;5055206;28;20031;-71
2020/12/30 13:26:29;;;;;;;10.30;4.30;;;;;;;;;;5055178;28;20048;-70
2020/12/30 13:28:55;;;;;;;11.98;4.78;;;;;;;;;;5110848;28;20024;-70
2020/12/30 13:31:21;;;;;;;7.70;4.35;;;;;;;;;;5095469;28;20216;-72
2020/12/30 13:33:47;;;;;;;11.15;4.50;;;;;;;;;;5110673;28;20073;-71
2020/12/30 13:36:18;;;;;;;9.23;4.53;;;;;;;;;;5068290;28;20040;-70
2020/12/30 13:38:44;;;;;;;7.32;4.30;;;;;;;;;;5077018;28;20099;-72
2020/12/30 13:41:10;;;;;;;13.60;3.83;;;;;;;;;;5054491;28;20090;-71
2020/12/30 13:43:36;;;;;;;14.40;4.63;;;;;;;;;;5072821;28;20028;-70
2020/12/30 13:46:02;;;;;;;15.93;4.57;;;;;;;;;;5072948;28;20028;-72
2020/12/30 13:48:28;;;;;;;8.82;4.20;;;;;;;;;;5072706;28;20032;-72
2020/12/30 13:50:54;;;;;;;17.95;4.43;;;;;;;;;;5073918;28;20048;-73
2020/12/30 13:53:20;;;;;;;16.17;6.43;;;;;;;;;;5081255;28;20012;-73
2020/12/30 13:55:47;;;;;;;15.52;7.90;;;;;;;;;;5090001;28;20399;-73
2020/12/30 13:58:13;;;;;;;22.50;6.57;;;;;;;;;;5073114;28;20093;-72
2020/12/30 14:00:39;;;;;;;10.45;6.03;;;;;;;;;;5074266;28;20020;-73
2020/12/30 14:03:05;;;;;;;12.50;6.05;;;;;;;;;;5073952;28;20047;-72
2020/12/30 14:05:35;;;;;;;13.30;5.78;;;;;;;;;;5088899;28;20013;-74
2020/12/30 14:08:01;;;;;;;12.77;5.93;;;;;;;;;;5090904;28;20360;-73
2020/12/30 14:10:27;;;;;;;10.90;6.35;;;;;;;;;;5092298;28;20044;-72
2020/12/30 14:12:53;;;;;;;9.52;6.25;;;;;;;;;;5091701;28;20024;-73
2020/12/30 14:15:19;;;;;;;9.02;5.78;;;;;;;;;;5072619;28;20021;-74
2020/12/30 14:17:45;;;;;;;12.38;6.95;;;;;;;;;;5071651;28;20110;-72
2020/12/30 14:20:11;;;;;;;12.38;6.55;;;;;;;;;;5072113;28;20099;-73
2020/12/30 14:22:37;;;;;;;11.65;6.65;;;;;;;;;;5072005;28;20107;-72
2020/12/30 14:25:04;;;;;;;11.27;6.35;;;;;;;;;;5075228;28;20044;-73
2020/12/30 14:27:33;;;;;;;10.60;5.88;;;;;;;;;;5087855;28;20029;-73
2020/12/30 14:29:59;;;;;;;13.90;6.55;;;;;;;;;;5071926;28;20020;-72
2020/12/30 14:32:25;;;;;;;11.35;6.20;;;;;;;;;;5053776;28;20017;-72
2020/12/30 14:34:51;;;;;;;12.60;6.85;;;;;;;;;;5071862;28;20098;-73
2020/12/30 14:37:17;;;;;;;10.32;6.20;;;;;;;;;;5072185;28;20375;-73